createdAt,value
2019-05-05T00:02:07.720Z,4.00
2019-05-05T00:04:41.624Z,2.80
2019-05-05T00:07:11.189Z,5.47
2019-05-05T00:09:40.521Z,2.00
2019-05-05T00:12:26.827Z,2.83
2019-05-05T00:14:57.800Z,5.00
2019-05-05T00:17:28.793Z,4.47
2019-05-05T00:19:58.137Z,3.53
2019-05-05T00:22:27.481Z,2.33
2019-05-05T00:24:56.815Z,3.00
2019-05-05T00:27:26.148Z,2.27
2019-05-05T00:29:55.484Z,5.80
2019-05-05T00:32:24.815Z,4.40
2019-05-05T00:34:55.118Z,5.80
2019-05-05T00:37:25.673Z,4.97
2019-05-05T00:39:55.236Z,5.77
2019-05-05T00:42:24.809Z,2.53
2019-05-05T00:44:54.903Z,3.37
2019-05-05T00:47:25.968Z,3.20
2019-05-05T00:49:56.288Z,4.37
2019-05-05T00:52:25.805Z,1.80
2019-05-05T00:54:55.675Z,6.60
2019-05-05T00:57:25.061Z,3.70
2019-05-05T00:59:54.517Z,3.60
2019-05-05T01:02:34.428Z,2.13
2019-05-05T01:05:22.551Z,3.43
2019-05-05T01:07:51.897Z,3.27
2019-05-05T01:10:21.232Z,4.27
2019-05-05T01:12:50.567Z,4.40
2019-05-05T01:15:19.903Z,4.70
2019-05-05T01:17:49.248Z,3.73
2019-05-05T01:20:18.819Z,3.93
2019-05-05T01:22:48.152Z,3.13
2019-05-05T01:25:18.000Z,2.00
2019-05-05T01:27:47.336Z,5.17
2019-05-05T01:30:21.704Z,2.23
2019-05-05T01:32:56.094Z,2.20
2019-05-05T01:35:25.546Z,2.47
2019-05-05T01:37:56.505Z,2.13
2019-05-05T01:40:30.408Z,3.87
2019-05-05T01:42:59.741Z,3.03
2019-05-05T01:45:29.086Z,3.60
2019-05-05T01:47:58.425Z,1.53
2019-05-05T01:50:27.770Z,4.80
2019-05-05T01:52:57.103Z,2.83
2019-05-05T01:55:26.688Z,3.60
2019-05-05T01:57:56.081Z,2.63
2019-05-05T02:00:25.538Z,1.80
2019-05-05T02:02:55.497Z,4.83
2019-05-05T02:05:24.865Z,3.87
2019-05-05T02:07:55.314Z,6.00
2019-05-05T02:10:25.490Z,8.20
2019-05-05T02:12:55.240Z,8.57
2019-05-05T02:15:25.084Z,10.77
2019-05-05T02:17:55.126Z,10.80
2019-05-05T02:20:35.015Z,8.57
2019-05-05T02:23:04.714Z,15.70
2019-05-05T02:25:34.637Z,10.93
2019-05-05T02:28:04.562Z,14.77
2019-05-05T02:30:36.037Z,11.57
2019-05-05T02:33:10.171Z,13.40
2019-05-05T02:35:39.617Z,9.67
2019-05-05T02:38:09.005Z,13.23
2019-05-05T02:40:39.060Z,10.70
2019-05-05T02:43:10.602Z,10.77
2019-05-05T02:46:00.983Z,12.10
2019-05-05T02:48:31.824Z,11.20
2019-05-05T02:51:06.409Z,17.40
2019-05-05T02:53:40.707Z,8.67
2019-05-05T02:56:14.604Z,11.90
2019-05-05T02:58:45.208Z,13.47
2019-05-05T03:01:19.835Z,9.63
2019-05-05T03:03:50.178Z,11.07
2019-05-05T03:06:19.528Z,10.27
2019-05-05T03:08:50.470Z,13.97
2019-05-05T03:11:20.520Z,9.63
2019-05-05T03:13:54.238Z,10.10
2019-05-05T03:16:27.925Z,10.10
2019-05-05T03:18:57.711Z,13.10
2019-05-05T03:21:27.303Z,14.40
2019-05-05T03:23:56.858Z,10.27
2019-05-05T03:26:26.835Z,10.10
2019-05-05T03:29:00.753Z,18.07
2019-05-05T03:31:30.638Z,13.57
2019-05-05T03:34:00.609Z,11.60
2019-05-05T03:36:30.618Z,12.40
2019-05-05T03:39:00.324Z,9.93
2019-05-05T03:41:38.094Z,13.97
2019-05-05T03:44:14.014Z,16.47
2019-05-05T03:46:43.922Z,9.23
2019-05-05T03:49:14.155Z,11.47
2019-05-05T03:51:44.033Z,10.70
2019-05-05T03:54:14.685Z,10.47
2019-05-05T03:56:44.373Z,9.47
2019-05-05T03:59:14.307Z,12.07
2019-05-05T04:01:45.672Z,11.67
2019-05-05T04:04:35.360Z,14.13
2019-05-05T04:07:04.963Z,10.87
2019-05-05T04:09:34.727Z,15.80
2019-05-05T04:12:04.563Z,12.83
2019-05-05T04:14:34.982Z,11.73
2019-05-05T04:17:14.063Z,8.73
2019-05-05T04:19:44.838Z,13.40
2019-05-05T04:22:14.172Z,10.97
2019-05-05T04:24:43.718Z,10.67
2019-05-05T04:27:14.668Z,12.83
2019-05-05T04:29:44.281Z,11.10
2019-05-05T04:32:14.226Z,14.07
2019-05-05T04:34:44.107Z,16.53
2019-05-05T04:37:14.859Z,20.07
2019-05-05T04:39:44.624Z,9.77
2019-05-05T04:42:14.302Z,10.47
2019-05-05T04:44:44.971Z,13.50
2019-05-05T04:47:31.447Z,11.30
2019-05-05T04:50:08.089Z,14.47
2019-05-05T04:52:37.694Z,15.87
2019-05-05T04:55:08.312Z,15.17
2019-05-05T04:57:37.651Z,12.17
2019-05-05T05:00:07.663Z,9.67
2019-05-05T05:02:44.689Z,15.47
2019-05-05T05:05:30.943Z,12.40
2019-05-05T05:08:00.283Z,16.10
2019-05-05T05:10:29.627Z,10.23
2019-05-05T05:12:58.989Z,9.97
2019-05-05T05:15:28.323Z,20.07
2019-05-05T05:17:59.297Z,16.30
2019-05-05T05:20:28.640Z,12.27
2019-05-05T05:22:57.977Z,12.90
2019-05-05T05:25:27.320Z,17.23
2019-05-05T05:27:56.657Z,11.83
2019-05-05T05:30:26.014Z,14.07
2019-05-05T05:32:55.339Z,10.17
2019-05-05T05:35:24.683Z,7.60
2019-05-05T05:37:57.402Z,11.43
2019-05-05T05:40:41.736Z,11.60
2019-05-05T05:43:13.902Z,7.63
2019-05-05T05:45:44.988Z,15.50
2019-05-05T05:48:34.281Z,12.93
2019-05-05T05:51:08.241Z,7.13
2019-05-05T05:53:37.576Z,9.77
2019-05-05T05:56:06.915Z,9.67
2019-05-05T05:58:36.257Z,7.20
2019-05-05T06:01:05.596Z,8.47
2019-05-05T06:03:34.937Z,9.03
2019-05-05T06:06:04.810Z,10.80
2019-05-05T06:08:34.767Z,10.77
2019-05-05T06:11:04.542Z,12.00
2019-05-05T06:13:34.004Z,10.77
2019-05-05T06:16:04.301Z,6.30
2019-05-05T06:18:34.525Z,9.37
2019-05-05T06:21:04.607Z,9.47
2019-05-05T06:23:34.530Z,6.57
2019-05-05T06:26:06.761Z,10.10
2019-05-05T06:28:35.295Z,10.40
2019-05-05T06:31:05.094Z,8.50
2019-05-05T06:33:34.854Z,9.70
2019-05-05T06:36:04.298Z,11.43
2019-05-05T06:38:34.648Z,12.07
2019-05-05T06:41:11.505Z,12.17
2019-05-05T06:43:45.183Z,11.87
2019-05-05T06:46:25.338Z,12.07
2019-05-05T06:48:54.674Z,8.07
2019-05-05T06:51:24.589Z,8.10
2019-05-05T06:53:54.102Z,9.53
2019-05-05T06:56:23.820Z,12.60
2019-05-05T06:58:54.044Z,9.13
2019-05-05T07:01:24.754Z,12.73
2019-05-05T07:03:55.159Z,12.00
2019-05-05T07:06:24.494Z,13.43
2019-05-05T07:08:54.542Z,14.47
2019-05-05T07:11:24.093Z,15.03
2019-05-05T07:13:53.780Z,10.77
2019-05-05T07:16:24.388Z,11.07
2019-05-05T07:18:54.084Z,8.67
2019-05-05T07:21:23.940Z,11.17
2019-05-05T07:23:54.059Z,7.57
2019-05-05T07:26:23.877Z,9.83
2019-05-05T07:28:54.119Z,7.03
2019-05-05T07:31:23.982Z,6.47
2019-05-05T07:33:54.468Z,4.33
2019-05-05T07:36:37.866Z,4.73
2019-05-05T07:39:10.290Z,6.03
2019-05-05T07:41:40.659Z,7.03
2019-05-05T07:44:23.493Z,7.67
2019-05-05T07:46:41.109Z,6.10
2019-05-05T07:49:10.532Z,12.70
2019-05-05T07:51:39.912Z,5.70
2019-05-05T07:54:09.817Z,6.50
2019-05-05T07:56:39.159Z,7.40
2019-05-05T07:59:08.613Z,7.33
2019-05-05T08:01:37.964Z,6.50
2019-05-05T08:04:07.314Z,7.57
2019-05-05T08:06:36.645Z,8.27
2019-05-05T08:09:07.592Z,7.17
2019-05-05T08:11:36.933Z,6.03
2019-05-05T08:14:06.285Z,5.50
2019-05-05T08:16:44.188Z,16.53
2019-05-05T08:19:21.241Z,9.53
2019-05-05T08:21:50.655Z,10.77
2019-05-05T08:24:21.628Z,8.70
2019-05-05T08:27:01.494Z,8.17
2019-05-05T08:29:34.476Z,8.17
2019-05-05T08:32:17.574Z,8.00
2019-05-05T08:34:57.485Z,9.30
2019-05-05T08:37:18.333Z,7.40
2019-05-05T08:39:47.671Z,6.60
2019-05-05T08:42:17.015Z,12.93
2019-05-05T08:44:46.358Z,10.97
2019-05-05T08:47:15.702Z,13.37
2019-05-05T08:49:45.032Z,8.17
2019-05-05T08:52:14.658Z,10.53
2019-05-05T08:54:44.766Z,12.30
2019-05-05T08:57:14.790Z,13.30
2019-05-05T08:59:44.092Z,12.73
2019-05-05T09:02:14.979Z,13.57
2019-05-05T09:04:44.805Z,12.33
2019-05-05T09:07:14.226Z,14.17
2019-05-05T09:09:44.163Z,12.60
2019-05-05T09:12:14.038Z,9.43
2019-05-05T09:14:44.923Z,10.00
2019-05-05T09:17:14.421Z,12.70
2019-05-05T09:19:44.864Z,8.23
2019-05-05T09:22:14.363Z,7.27
2019-05-05T09:25:01.785Z,13.10
2019-05-05T09:27:33.863Z,15.70
2019-05-05T09:30:04.836Z,9.17
2019-05-05T09:32:34.569Z,14.43
2019-05-05T09:35:05.949Z,9.50
2019-05-05T09:37:35.558Z,13.57
2019-05-05T09:40:06.803Z,11.70
2019-05-05T09:42:36.174Z,6.80
2019-05-05T09:45:07.196Z,9.60
2019-05-05T09:47:36.541Z,10.30
2019-05-05T09:50:09.121Z,10.23
2019-05-05T09:52:38.463Z,11.83
2019-05-05T09:55:09.063Z,8.90
2019-05-05T09:57:38.405Z,6.73
2019-05-05T10:00:10.697Z,10.77
2019-05-05T10:02:40.041Z,9.20
2019-05-05T10:05:10.188Z,11.63
2019-05-05T10:07:39.531Z,7.77
2019-05-05T10:10:09.977Z,5.70
2019-05-05T10:12:39.318Z,8.40
2019-05-05T10:15:08.981Z,8.63
2019-05-05T10:17:38.317Z,6.90
2019-05-05T10:20:08.660Z,6.57
2019-05-05T10:22:38.073Z,8.53
2019-05-05T10:25:26.076Z,7.10
2019-05-05T10:27:55.963Z,5.90
2019-05-05T10:30:25.303Z,13.77
2019-05-05T10:32:54.713Z,9.60
2019-05-05T10:35:24.528Z,10.37
2019-05-05T10:37:54.482Z,5.40
2019-05-05T10:40:25.758Z,8.30
2019-05-05T10:42:55.482Z,8.97
2019-05-05T10:45:25.468Z,10.87
2019-05-05T10:47:55.041Z,12.80
2019-05-05T10:50:24.803Z,7.27
2019-05-05T10:52:54.645Z,8.37
2019-05-05T10:55:24.237Z,10.30
2019-05-05T10:57:54.428Z,8.40
2019-05-05T11:00:50.651Z,8.03
2019-05-05T11:03:20.529Z,10.43
2019-05-05T11:05:49.866Z,8.60
2019-05-05T11:08:19.445Z,9.37
2019-05-05T11:10:48.783Z,6.67
2019-05-05T11:13:18.202Z,11.40
2019-05-05T11:15:47.624Z,9.13
2019-05-05T11:18:16.965Z,12.90
2019-05-05T11:20:46.477Z,12.40
2019-05-05T11:23:15.812Z,8.93
2019-05-05T11:25:45.161Z,11.23
2019-05-05T11:28:14.500Z,7.43
2019-05-05T11:30:46.727Z,5.60
2019-05-05T11:33:34.611Z,9.03
2019-05-05T11:36:06.169Z,9.20
2019-05-05T11:38:35.511Z,7.80
2019-05-05T11:41:05.079Z,6.67
2019-05-05T11:43:34.470Z,8.83
2019-05-05T11:46:03.829Z,6.47
2019-05-05T11:48:34.485Z,8.33
2019-05-05T11:51:04.608Z,5.80
2019-05-05T11:53:34.181Z,5.87
2019-05-05T11:56:04.396Z,6.90
2019-05-05T11:58:34.088Z,8.93
2019-05-05T12:01:03.860Z,11.07
2019-05-05T12:03:34.115Z,7.67
2019-05-05T12:06:04.003Z,10.17
2019-05-05T12:08:34.481Z,10.83
2019-05-05T12:11:05.568Z,13.10
2019-05-05T12:13:34.981Z,9.60
2019-05-05T12:16:05.792Z,7.27
2019-05-05T12:18:35.225Z,8.00
2019-05-05T12:21:05.324Z,6.97
2019-05-05T12:23:34.722Z,3.80
2019-05-05T12:26:24.234Z,6.90
2019-05-05T12:28:57.873Z,7.27
2019-05-05T12:31:33.863Z,8.27
2019-05-05T12:34:03.938Z,7.27
2019-05-05T12:36:34.180Z,7.33
2019-05-05T12:39:07.019Z,3.73
2019-05-05T12:41:36.364Z,6.73
2019-05-05T12:44:07.287Z,6.77
2019-05-05T12:46:41.155Z,4.17
2019-05-05T12:49:13.863Z,4.77
2019-05-05T12:51:43.628Z,6.00
2019-05-05T12:54:14.692Z,4.00
2019-05-05T12:56:44.657Z,4.63
2019-05-05T12:59:15.750Z,11.53
2019-05-05T13:01:45.170Z,2.83
2019-05-05T13:04:14.514Z,3.13
2019-05-05T13:06:45.069Z,4.47
2019-05-05T13:09:16.216Z,4.00
2019-05-05T13:11:45.844Z,3.90
2019-05-05T13:14:15.258Z,8.73
2019-05-05T13:16:52.480Z,8.73
2019-05-05T13:19:17.379Z,5.00
2019-05-05T13:21:57.613Z,6.00
2019-05-05T13:24:31.258Z,7.17
2019-05-05T13:27:08.633Z,5.80
2019-05-05T13:29:33.827Z,9.03
2019-05-05T13:32:03.715Z,7.80
2019-05-05T13:34:33.116Z,6.13
2019-05-05T13:37:03.624Z,4.13
2019-05-05T13:39:34.009Z,4.40
2019-05-05T13:42:04.557Z,7.33
2019-05-05T13:44:53.712Z,6.87
2019-05-05T13:47:23.829Z,7.23
2019-05-05T13:50:09.949Z,6.10
2019-05-05T13:52:39.289Z,5.90
2019-05-05T13:55:09.271Z,6.10
2019-05-05T13:57:38.605Z,6.63
2019-05-05T14:00:11.403Z,5.30
2019-05-05T14:02:40.743Z,7.50
2019-05-05T14:05:10.330Z,5.20
2019-05-05T14:07:39.750Z,6.00
2019-05-05T14:10:09.704Z,5.93
2019-05-05T14:12:39.037Z,6.23
2019-05-05T14:15:17.824Z,7.63
2019-05-05T14:17:47.161Z,8.90
2019-05-05T14:20:16.738Z,7.17
2019-05-05T14:22:46.077Z,4.47
2019-05-05T14:25:20.432Z,8.13
2019-05-05T14:27:49.832Z,6.77
2019-05-05T14:30:39.021Z,8.80
2019-05-05T14:33:09.995Z,7.03
2019-05-05T14:35:54.018Z,7.33
2019-05-05T14:38:44.451Z,8.10
2019-05-05T14:41:13.820Z,7.97
2019-05-05T14:43:43.853Z,4.87
2019-05-05T14:46:14.519Z,9.30
2019-05-05T14:48:44.146Z,7.13
2019-05-05T14:51:14.517Z,5.33
2019-05-05T14:53:44.284Z,7.77
2019-05-05T14:56:13.684Z,9.93
2019-05-05T14:58:43.819Z,9.33
2019-05-05T15:01:14.418Z,9.50
2019-05-05T15:03:44.471Z,6.90
2019-05-05T15:06:23.793Z,7.33
2019-05-05T15:09:10.383Z,7.57
2019-05-05T15:11:50.358Z,4.77
2019-05-05T15:14:19.698Z,7.33
2019-05-05T15:16:49.048Z,8.57
2019-05-05T15:19:18.403Z,4.30
2019-05-05T15:21:48.928Z,5.67
2019-05-05T15:24:18.321Z,6.53
2019-05-05T15:26:51.891Z,9.83
2019-05-05T15:29:18.734Z,7.00
2019-05-05T15:31:48.091Z,6.87
2019-05-05T15:34:17.419Z,7.20
2019-05-05T15:36:46.761Z,9.83
2019-05-05T15:39:16.098Z,6.53
2019-05-05T15:41:45.439Z,6.93
2019-05-05T15:44:14.772Z,8.10
2019-05-05T15:46:44.323Z,8.13
2019-05-05T15:49:14.478Z,3.03
2019-05-05T15:51:44.409Z,4.73
2019-05-05T15:54:14.119Z,5.77
2019-05-05T15:56:43.498Z,3.77
2019-05-05T15:59:14.359Z,6.37
2019-05-05T16:01:44.087Z,7.90
2019-05-05T16:04:14.095Z,8.57
2019-05-05T16:06:44.531Z,7.27
2019-05-05T16:09:13.855Z,12.17
2019-05-05T16:11:44.052Z,8.47
2019-05-05T16:14:14.473Z,11.20
2019-05-05T16:16:48.201Z,4.27
2019-05-05T16:19:31.542Z,9.07
2019-05-05T16:22:03.951Z,5.60
2019-05-05T16:24:36.549Z,8.60
2019-05-05T16:27:18.594Z,6.93
2019-05-05T16:29:37.317Z,7.13
2019-05-05T16:32:18.407Z,7.60
2019-05-05T16:34:38.692Z,5.40
2019-05-05T16:37:08.058Z,8.20
2019-05-05T16:39:37.401Z,7.63
2019-05-05T16:42:06.755Z,10.53
2019-05-05T16:44:36.085Z,7.47
2019-05-05T16:47:05.436Z,12.33
2019-05-05T16:49:35.498Z,5.83
2019-05-05T16:52:08.075Z,5.80
2019-05-05T16:54:39.062Z,4.60
2019-05-05T16:57:08.436Z,6.83
2019-05-05T16:59:37.780Z,8.20
2019-05-05T17:02:07.307Z,6.37
2019-05-05T17:04:36.641Z,4.57
2019-05-05T17:07:06.021Z,4.20
2019-05-05T17:09:35.696Z,9.20
2019-05-05T17:12:10.869Z,5.97
2019-05-05T17:14:45.609Z,5.63
2019-05-05T17:17:23.267Z,6.57
2019-05-05T17:19:55.237Z,6.17
2019-05-05T17:22:26.212Z,6.73
2019-05-05T17:24:55.574Z,4.73
2019-05-05T17:27:24.917Z,5.80
2019-05-05T17:29:54.259Z,4.67
2019-05-05T17:32:24.893Z,8.17
2019-05-05T17:34:54.380Z,6.70
2019-05-05T17:37:23.965Z,10.30
2019-05-05T17:39:54.964Z,4.27
2019-05-05T17:42:28.617Z,6.40
2019-05-05T17:45:03.714Z,3.07
2019-05-05T17:47:51.235Z,5.20
2019-05-05T17:50:25.227Z,7.03
2019-05-05T17:52:56.208Z,7.37
2019-05-05T17:55:30.158Z,9.17
2019-05-05T17:58:02.356Z,5.40
2019-05-05T18:00:34.267Z,7.50
2019-05-05T18:03:04.394Z,7.20
2019-05-05T18:05:54.503Z,9.77
2019-05-05T18:08:40.837Z,3.40
2019-05-05T18:11:27.945Z,8.53
2019-05-05T18:14:14.546Z,4.03
2019-05-05T18:16:44.779Z,5.97
2019-05-05T18:19:14.221Z,7.73
2019-05-05T18:21:43.937Z,6.13
2019-05-05T18:24:13.870Z,6.83
2019-05-05T18:26:43.623Z,9.87
2019-05-05T18:29:14.605Z,6.07
2019-05-05T18:31:43.898Z,7.40
2019-05-05T18:34:13.519Z,6.33
2019-05-05T18:36:44.594Z,8.30
2019-05-05T18:39:14.033Z,8.13
2019-05-05T18:41:44.997Z,6.63
2019-05-05T18:44:16.002Z,7.37
2019-05-05T18:46:48.516Z,7.03
2019-05-05T18:49:17.853Z,5.73
2019-05-05T18:51:47.194Z,11.80
2019-05-05T18:54:16.543Z,7.27
2019-05-05T18:56:45.891Z,6.67
2019-05-05T18:59:15.227Z,4.80
2019-05-05T19:02:03.684Z,6.33
2019-05-05T19:04:37.454Z,7.57
2019-05-05T19:07:17.502Z,11.37
2019-05-05T19:09:53.943Z,11.80
2019-05-05T19:12:18.035Z,13.20
2019-05-05T19:14:47.387Z,11.47
2019-05-05T19:17:16.724Z,6.63
2019-05-05T19:19:47.956Z,6.37
2019-05-05T19:22:17.290Z,5.37
2019-05-05T19:24:46.638Z,9.60
2019-05-05T19:27:15.969Z,5.10
2019-05-05T19:29:46.334Z,5.13
2019-05-05T19:32:16.012Z,5.43
2019-05-05T19:34:45.343Z,7.03
2019-05-05T19:37:14.683Z,8.93
2019-05-05T19:39:44.035Z,6.93
2019-05-05T19:42:14.414Z,13.30
2019-05-05T19:44:43.900Z,10.10
2019-05-05T19:47:20.589Z,13.10
2019-05-05T19:49:51.566Z,14.77
2019-05-05T19:52:20.902Z,13.27
2019-05-05T19:54:50.236Z,8.87
2019-05-05T19:57:19.575Z,10.10
2019-05-05T19:59:48.980Z,10.97
2019-05-05T20:02:18.381Z,7.53
2019-05-05T20:04:47.733Z,6.93
2019-05-05T20:07:17.061Z,7.13
2019-05-05T20:09:46.423Z,5.47
2019-05-05T20:12:15.774Z,9.63
2019-05-05T20:14:45.115Z,6.97
2019-05-05T20:17:16.097Z,5.70
2019-05-05T20:19:46.034Z,7.83
2019-05-05T20:22:15.364Z,7.80
2019-05-05T20:24:44.700Z,5.40
2019-05-05T20:27:14.807Z,6.07
2019-05-05T20:29:44.328Z,7.47
2019-05-05T20:32:14.805Z,7.93
2019-05-05T20:34:46.020Z,7.97
2019-05-05T20:37:16.993Z,7.37
2019-05-05T20:39:46.334Z,6.77
2019-05-05T20:42:15.690Z,9.17
2019-05-05T20:44:45.171Z,10.57
2019-05-05T20:47:14.516Z,8.70
2019-05-05T20:49:48.148Z,10.53
2019-05-05T20:52:17.485Z,6.87
2019-05-05T20:54:46.905Z,8.63
2019-05-05T20:57:16.250Z,12.57
2019-05-05T20:59:48.145Z,8.23
2019-05-05T21:02:16.648Z,6.70
2019-05-05T21:04:45.980Z,6.47
2019-05-05T21:07:15.318Z,7.13
2019-05-05T21:09:44.652Z,5.87
2019-05-05T21:12:13.991Z,11.57
2019-05-05T21:14:44.636Z,8.00
2019-05-05T21:17:14.197Z,5.43
2019-05-05T21:19:43.617Z,8.73
2019-05-05T21:22:29.591Z,6.77
2019-05-05T21:24:59.393Z,9.87
2019-05-05T21:27:28.728Z,7.87
2019-05-05T21:29:58.068Z,9.10
2019-05-05T21:32:27.410Z,8.90
2019-05-05T21:34:56.745Z,9.23
2019-05-05T21:37:26.101Z,8.10
2019-05-05T21:39:55.467Z,8.83
2019-05-05T21:42:24.796Z,15.07
2019-05-05T21:44:54.123Z,8.97
2019-05-05T21:47:24.055Z,7.60
2019-05-05T21:49:54.255Z,6.23
2019-05-05T21:52:41.847Z,6.03
2019-05-05T21:55:13.861Z,8.03
2019-05-05T21:57:47.867Z,6.57
2019-05-05T22:00:35.764Z,6.37
2019-05-05T22:03:05.687Z,4.67
2019-05-05T22:05:35.307Z,6.87
2019-05-05T22:08:04.831Z,7.87
2019-05-05T22:10:34.399Z,5.93
2019-05-05T22:13:04.851Z,5.37
2019-05-05T22:15:35.730Z,6.27
2019-05-05T22:18:05.317Z,6.57
2019-05-05T22:20:44.218Z,6.97
2019-05-05T22:23:14.551Z,7.27
2019-05-05T22:25:43.935Z,7.10
2019-05-05T22:28:13.274Z,6.30
2019-05-05T22:30:43.729Z,6.47
2019-05-05T22:33:13.796Z,6.37
2019-05-05T22:35:44.245Z,8.07
2019-05-05T22:38:13.794Z,9.87
2019-05-05T22:40:44.069Z,7.17
2019-05-05T22:43:14.724Z,6.23
2019-05-05T22:45:45.124Z,6.87
2019-05-05T22:48:14.555Z,13.00
2019-05-05T22:50:44.149Z,6.27
2019-05-05T22:53:14.065Z,4.23
2019-05-05T22:55:44.549Z,6.70
2019-05-05T22:58:14.311Z,6.80
2019-05-05T23:00:44.083Z,4.17
2019-05-05T23:03:21.171Z,7.07
2019-05-05T23:05:52.147Z,7.73
2019-05-05T23:08:21.496Z,6.80
2019-05-05T23:10:50.834Z,9.10
2019-05-05T23:13:20.172Z,11.23
2019-05-05T23:15:56.758Z,8.67
2019-05-05T23:18:27.474Z,12.23
2019-05-05T23:21:17.308Z,7.97
2019-05-05T23:24:06.075Z,9.83
2019-05-05T23:26:37.050Z,7.50
2019-05-05T23:29:06.405Z,10.17
2019-05-05T23:31:35.743Z,9.23
2019-05-05T23:34:05.160Z,8.33
2019-05-05T23:36:34.580Z,6.37
2019-05-05T23:39:06.418Z,14.00
2019-05-05T23:41:36.678Z,10.27
2019-05-05T23:44:06.291Z,11.40
2019-05-05T23:46:35.628Z,7.60
2019-05-05T23:49:05.034Z,9.40
2019-05-05T23:51:34.867Z,10.63
2019-05-05T23:54:04.488Z,8.57
2019-05-05T23:56:34.980Z,11.20
2019-05-05T23:59:04.504Z,6.37
